Time,TemperatureF,DewpointF,PressureIn,WindDirection,WindDirectionDegrees,WindSpeedMPH,WindSpeedGustMPH,Humidity,HourlyPrecipIn,Conditions,Clouds,dailyrainin,SolarRadiationWatts/m^2,SoftwareType,DateUTC
2013-07-29 00:00:00,71.8,70.9,29.98,West,275,2.0,2.0,97,0.07,,,0.16,0.0,meteohub,2013-07-29 04:00:00,
2013-07-29 00:01:00,71.8,70.9,29.98,West,275,0.0,2.0,97,0.07,,,0.16,0.0,meteohub,2013-07-29 04:01:00,
2013-07-29 00:02:00,71.8,70.5,29.98,West,273,0.0,2.0,96,0.07,,,0.16,0.0,meteohub,2013-07-29 04:02:00,
2013-07-29 00:08:00,71.6,70.3,29.98,NW,322,2.0,4.0,96,0.07,,,0.16,0.0,meteohub,2013-07-29 04:08:00,
2013-07-29 00:13:00,71.6,70.7,29.98,NW,322,0.0,4.0,97,0.01,,,0.17,0.0,meteohub,2013-07-29 04:13:00,
2013-07-29 00:18:00,71.6,70.3,29.97,NW,322,0.0,4.0,96,0.02,,,0.17,0.0,meteohub,2013-07-29 04:18:00,
2013-07-29 00:23:00,72.0,71.1,29.97,NW,321,0.0,3.0,97,0.02,,,0.18,0.0,meteohub,2013-07-29 04:23:00,
2013-07-29 00:28:00,72.0,71.1,29.97,NW,322,0.0,1.0,97,0.05,,,0.20,0.0,meteohub,2013-07-29 04:28:00,
2013-07-29 00:33:00,71.8,70.5,29.97,West,261,0.0,1.0,96,0.06,,,0.22,0.0,meteohub,2013-07-29 04:33:00,
2013-07-29 00:39:00,71.4,70.2,29.97,SSE,151,0.0,3.0,96,0.07,,,0.23,0.0,meteohub,2013-07-29 04:39:00,
2013-07-29 00:44:00,71.4,70.5,29.96,ESE,107,1.0,3.0,97,0.07,,,0.23,0.0,meteohub,2013-07-29 04:44:00,
2013-07-29 00:49:00,71.4,70.5,29.96,ESE,107,0.0,3.0,97,0.08,,,0.24,0.0,meteohub,2013-07-29 04:49:00,
2013-07-29 00:54:00,71.4,70.5,29.96,ESE,107,0.0,3.0,97,0.08,,,0.24,0.0,meteohub,2013-07-29 04:54:00,
2013-07-29 00:59:00,71.4,70.5,29.96,ESE,107,0.0,2.0,97,0.08,,,0.24,0.0,meteohub,2013-07-29 04:59:00,
2013-07-29 01:04:00,71.4,70.5,29.95,ESE,107,0.0,1.0,97,0.08,,,0.24,0.0,meteohub,2013-07-29 05:04:00,
2013-07-29 01:10:00,71.4,70.5,29.95,ESE,107,0.0,1.0,97,0.07,,,0.24,0.0,meteohub,2013-07-29 05:10:00,
2013-07-29 01:15:00,71.6,70.7,29.95,ESE,108,3.0,3.0,97,0.07,,,0.24,0.0,meteohub,2013-07-29 05:15:00,
2013-07-29 01:20:00,71.4,70.5,29.95,ESE,108,0.0,4.0,97,0.06,,,0.24,0.0,meteohub,2013-07-29 05:20:00,
2013-07-29 01:25:00,71.2,70.3,29.96,ESE,108,0.0,4.0,97,0.05,,,0.24,0.0,meteohub,2013-07-29 05:25:00,
2013-07-29 01:30:00,70.3,69.1,29.95,ESE,116,0.0,4.0,96,0.03,,,0.24,0.0,meteohub,2013-07-29 05:30:00,
2013-07-29 01:35:00,69.6,68.4,29.96,SE,132,0.0,7.0,96,0.01,,,0.24,0.0,meteohub,2013-07-29 05:35:00,
2013-07-29 01:41:00,69.4,68.2,29.95,SE,136,2.0,7.0,96,0.01,,,0.24,0.0,meteohub,2013-07-29 05:41:00,
2013-07-29 01:46:00,69.3,68.4,29.95,SE,129,1.0,5.0,97,0.00,,,0.24,0.0,meteohub,2013-07-29 05:46:00,
2013-07-29 01:51:00,69.1,68.2,29.95,South,183,0.0,5.0,97,0.00,,,0.24,0.0,meteohub,2013-07-29 05:51:00,
2013-07-29 01:56:00,69.1,68.2,29.95,SSW,195,1.0,5.0,97,0.00,,,0.24,0.0,meteohub,2013-07-29 05:56:00,
2013-07-29 02:01:00,69.1,68.2,29.95,South,180,0.0,5.0,97,0.00,,,0.24,0.0,meteohub,2013-07-29 06:01:00,
2013-07-29 02:06:00,68.7,67.8,29.94,South,179,0.0,4.0,97,0.00,,,0.24,0.0,meteohub,2013-07-29 06:06:00,
2013-07-29 02:12:00,68.7,67.8,29.94,SSE,167,0.0,4.0,97,0.00,,,0.24,0.0,meteohub,2013-07-29 06:12:00,
2013-07-29 02:17:00,68.7,67.8,29.94,WSW,253,0.0,4.0,97,0.00,,,0.24,0.0,meteohub,2013-07-29 06:17:00,
2013-07-29 02:22:00,68.5,67.6,29.94,WSW,258,0.0,4.0,97,0.00,,,0.24,0.0,meteohub,2013-07-29 06:22:00,
2013-07-29 02:27:00,68.5,67.3,29.95,SW,232,0.0,3.0,96,0.00,,,0.24,0.0,meteohub,2013-07-29 06:27:00,
2013-07-29 02:32:00,68.5,67.6,29.95,WSW,244,0.0,3.0,97,0.00,,,0.24,0.0,meteohub,2013-07-29 06:32:00,
2013-07-29 02:37:00,68.4,67.1,29.96,WSW,245,0.0,3.0,96,0.00,,,0.24,0.0,meteohub,2013-07-29 06:37:00,
2013-07-29 02:42:00,68.5,67.3,29.95,WSW,245,0.0,3.0,96,0.00,,,0.24,0.0,meteohub,2013-07-29 06:42:00,
2013-07-29 02:48:00,68.5,67.3,29.95,WSW,245,0.0,2.0,96,0.00,,,0.24,0.0,meteohub,2013-07-29 06:48:00,
2013-07-29 02:53:00,68.4,67.1,29.95,WSW,245,0.0,1.0,96,0.00,,,0.24,0.0,meteohub,2013-07-29 06:53:00,
2013-07-29 02:58:00,68.4,67.1,29.95,WSW,245,0.0,3.0,96,0.00,,,0.24,0.0,meteohub,2013-07-29 06:58:00,
2013-07-29 03:03:00,68.5,67.3,29.95,WSW,245,1.0,3.0,96,0.01,,,0.25,0.0,meteohub,2013-07-29 07:03:00,
2013-07-29 03:08:00,68.4,67.1,29.96,WSW,245,0.0,3.0,96,0.01,,,0.25,0.0,meteohub,2013-07-29 07:08:00,
2013-07-29 03:13:00,68.4,67.1,29.96,WSW,240,1.0,2.0,96,0.01,,,0.25,0.0,meteohub,2013-07-29 07:13:00,
2013-07-29 03:18:00,68.4,67.1,29.97,SW,234,4.0,4.0,96,0.01,,,0.25,0.0,meteohub,2013-07-29 07:18:00,
2013-07-29 03:24:00,68.5,67.3,29.97,WNW,286,0.0,6.0,96,0.01,,,0.25,0.0,meteohub,2013-07-29 07:24:00,
2013-07-29 03:29:00,68.7,67.5,29.97,WNW,282,2.0,6.0,96,0.01,,,0.25,0.0,meteohub,2013-07-29 07:29:00,
2013-07-29 03:34:00,68.7,67.8,29.97,WNW,290,0.0,6.0,97,0.01,,,0.25,0.0,meteohub,2013-07-29 07:34:00,
2013-07-29 03:39:00,69.1,68.2,29.97,NNW,330,2.0,4.0,97,0.01,,,0.25,0.0,meteohub,2013-07-29 07:39:00,
2013-07-29 03:44:00,69.1,68.2,29.97,NW,311,4.0,4.0,97,0.01,,,0.25,0.0,meteohub,2013-07-29 07:44:00,
2013-07-29 03:49:00,69.3,68.4,29.97,NW,321,7.0,7.0,97,0.01,,,0.25,0.0,meteohub,2013-07-29 07:49:00,
2013-07-29 03:55:00,69.1,68.2,29.98,NW,314,3.0,13.0,97,0.01,,,0.25,0.0,meteohub,2013-07-29 07:55:00,
2013-07-29 04:00:00,68.7,67.8,29.97,NW,317,1.0,13.0,97,0.01,,,0.25,0.0,meteohub,2013-07-29 08:00:00,
2013-07-29 04:05:00,68.7,67.8,29.96,NW,324,0.0,13.0,97,0.00,,,0.25,0.0,meteohub,2013-07-29 08:05:00,
2013-07-29 04:10:00,68.5,67.6,29.96,NW,321,0.0,10.0,97,0.00,,,0.25,0.0,meteohub,2013-07-29 08:10:00,
2013-07-29 04:15:00,68.5,67.6,29.96,NW,309,0.0,6.0,97,0.00,,,0.25,0.0,meteohub,2013-07-29 08:15:00,
2013-07-29 04:21:00,68.5,67.6,29.96,NNW,328,0.0,6.0,97,0.00,,,0.25,0.0,meteohub,2013-07-29 08:21:00,
2013-07-29 04:26:00,68.5,67.6,29.96,NNW,328,0.0,5.0,97,0.00,,,0.25,0.0,meteohub,2013-07-29 08:26:00,
2013-07-29 04:32:00,68.5,67.6,29.96,NNW,328,0.0,1.0,97,0.00,,,0.25,0.0,meteohub,2013-07-29 08:32:00,
2013-07-29 04:37:00,68.5,67.6,29.97,NNW,328,0.0,1.0,97,0.00,,,0.25,0.0,meteohub,2013-07-29 08:37:00,
2013-07-29 04:42:00,68.5,67.6,29.97,NNW,328,0.0,1.0,97,0.00,,,0.25,0.0,meteohub,2013-07-29 08:42:00,
2013-07-29 04:47:00,68.5,67.6,29.97,NNW,328,0.0,1.0,97,0.00,,,0.25,0.0,meteohub,2013-07-29 08:47:00,
2013-07-29 04:52:00,68.5,67.6,29.97,NNW,328,0.0,3.0,97,0.00,,,0.25,0.0,meteohub,2013-07-29 08:52:00,
2013-07-29 04:57:00,68.5,67.6,29.96,NNW,328,0.0,3.0,97,0.00,,,0.25,0.0,meteohub,2013-07-29 08:57:00,
2013-07-29 05:02:00,68.4,67.5,29.97,NNW,328,0.0,3.0,97,0.00,,,0.25,0.0,meteohub,2013-07-29 09:02:00,
2013-07-29 05:07:00,68.4,67.5,29.96,NNW,328,0.0,2.0,97,0.00,,,0.25,0.0,meteohub,2013-07-29 09:07:00,
2013-07-29 05:13:00,68.4,67.5,29.96,NNW,328,0.0,2.0,97,0.00,,,0.25,0.0,meteohub,2013-07-29 09:13:00,
2013-07-29 05:18:00,68.4,67.5,29.96,NNW,328,0.0,2.0,97,0.00,,,0.25,0.0,meteohub,2013-07-29 09:18:00,
2013-07-29 05:23:00,68.4,67.5,29.97,NNW,328,0.0,2.0,97,0.00,,,0.25,0.0,meteohub,2013-07-29 09:23:00,
2013-07-29 05:28:00,68.2,66.9,29.97,NNW,328,0.0,2.0,96,0.00,,,0.25,0.0,meteohub,2013-07-29 09:28:00,
2013-07-29 05:34:00,68.0,66.7,29.97,NNW,328,0.0,2.0,96,0.00,,,0.25,0.0,meteohub,2013-07-29 09:34:00,
2013-07-29 05:39:00,67.8,66.9,29.97,NNW,328,0.0,0.0,97,0.00,,,0.25,0.0,meteohub,2013-07-29 09:39:00,
2013-07-29 05:44:00,68.0,67.1,29.97,NNW,328,0.0,0.0,97,0.00,,,0.25,0.0,meteohub,2013-07-29 09:44:00,
2013-07-29 05:49:00,67.6,66.4,29.98,NNW,333,0.0,0.0,96,0.00,,,0.25,0.0,meteohub,2013-07-29 09:49:00,
2013-07-29 05:54:00,67.8,66.9,29.98,NNW,333,0.0,2.0,97,0.00,,,0.25,7.0,meteohub,2013-07-29 09:54:00,
2013-07-29 05:59:00,67.8,66.9,29.98,NNW,333,0.0,2.0,97,0.00,,,0.25,12.0,meteohub,2013-07-29 09:59:00,
2013-07-29 06:05:00,67.8,66.9,29.98,NNW,333,0.0,2.0,97,0.00,,,0.25,18.0,meteohub,2013-07-29 10:05:00,
2013-07-29 06:10:00,67.6,66.7,29.98,NNW,333,0.0,0.0,97,0.00,,,0.25,26.0,meteohub,2013-07-29 10:10:00,
2013-07-29 06:15:00,67.6,66.7,29.98,NNW,333,0.0,1.0,97,0.00,,,0.25,35.0,meteohub,2013-07-29 10:15:00,
2013-07-29 06:20:00,67.6,66.7,29.98,NNW,333,0.0,1.0,97,0.00,,,0.25,44.0,meteohub,2013-07-29 10:20:00,
2013-07-29 06:25:00,67.8,66.9,29.99,NNW,333,0.0,1.0,97,0.00,,,0.25,54.0,meteohub,2013-07-29 10:25:00,
2013-07-29 06:30:00,68.4,67.5,29.98,NNW,333,0.0,1.0,97,0.00,,,0.25,58.0,meteohub,2013-07-29 10:30:00,
2013-07-29 06:36:00,68.4,67.5,29.98,NNW,333,0.0,1.0,97,0.00,,,0.25,70.0,meteohub,2013-07-29 10:36:00,
2013-07-29 06:41:00,68.5,67.6,29.98,NNW,333,0.0,1.0,97,0.00,,,0.25,93.0,meteohub,2013-07-29 10:41:00,
2013-07-29 06:47:00,68.5,67.6,29.99,NNW,333,0.0,1.0,97,0.00,,,0.25,98.0,meteohub,2013-07-29 10:47:00,
2013-07-29 06:52:00,68.5,67.6,29.99,NW,306,0.0,3.0,97,0.00,,,0.25,72.0,meteohub,2013-07-29 10:52:00,
2013-07-29 06:57:00,68.5,67.6,29.99,NW,306,0.0,3.0,97,0.00,,,0.25,63.0,meteohub,2013-07-29 10:57:00,
2013-07-29 07:02:00,68.5,67.6,29.99,NW,306,0.0,3.0,97,0.00,,,0.25,54.0,meteohub,2013-07-29 11:02:00,
2013-07-29 07:07:00,68.5,67.6,29.99,WNW,298,0.0,1.0,97,0.00,,,0.25,63.0,meteohub,2013-07-29 11:07:00,
2013-07-29 07:12:00,68.7,67.8,29.99,WNW,298,2.0,3.0,97,0.00,,,0.25,130.0,meteohub,2013-07-29 11:12:00,
2013-07-29 07:17:00,68.9,68.0,29.99,WNW,299,0.0,3.0,97,0.00,,,0.25,91.0,meteohub,2013-07-29 11:17:00,
2013-07-29 07:23:00,69.1,68.2,29.99,WNW,299,0.0,3.0,97,0.00,,,0.25,56.0,meteohub,2013-07-29 11:23:00,
2013-07-29 07:28:00,69.1,68.2,30.00,WNW,299,0.0,3.0,97,0.00,,,0.25,113.0,meteohub,2013-07-29 11:28:00,
2013-07-29 07:33:00,69.3,68.4,30.00,West,263,0.0,1.0,97,0.00,,,0.25,207.0,meteohub,2013-07-29 11:33:00,
2013-07-29 07:39:00,69.4,68.2,30.00,WSW,252,0.0,3.0,96,0.00,,,0.25,234.0,meteohub,2013-07-29 11:39:00,
2013-07-29 07:44:00,69.4,68.2,30.00,SW,229,0.0,4.0,96,0.00,,,0.25,257.0,meteohub,2013-07-29 11:44:00,
2013-07-29 07:49:00,69.6,68.4,30.01,SW,232,0.0,4.0,96,0.00,,,0.25,274.0,meteohub,2013-07-29 11:49:00,
2013-07-29 07:55:00,69.8,68.5,30.00,West,272,0.0,4.0,96,0.00,,,0.25,302.0,meteohub,2013-07-29 11:55:00,
2013-07-29 08:00:00,70.2,68.7,30.01,WSW,249,0.0,3.0,95,0.00,,,0.25,294.0,meteohub,2013-07-29 12:00:00,
2013-07-29 08:05:00,70.3,68.9,30.01,West,276,0.0,3.0,95,0.00,,,0.25,369.0,meteohub,2013-07-29 12:05:00,
2013-07-29 08:11:00,70.5,68.7,30.01,NW,309,0.0,4.0,94,0.00,,,0.25,244.0,meteohub,2013-07-29 12:11:00,
2013-07-29 08:16:00,70.3,68.2,30.01,NW,320,0.0,6.0,93,0.00,,,0.25,239.0,meteohub,2013-07-29 12:16:00,
2013-07-29 08:22:00,70.2,68.0,30.01,NW,323,0.0,6.0,93,0.00,,,0.25,309.0,meteohub,2013-07-29 12:22:00,
2013-07-29 08:27:00,70.2,68.4,30.01,NNW,342,7.0,7.0,94,0.00,,,0.25,258.0,meteohub,2013-07-29 12:27:00,
2013-07-29 08:32:00,70.2,68.4,30.02,NNW,327,0.0,7.0,94,0.00,,,0.25,443.0,meteohub,2013-07-29 12:32:00,
2013-07-29 08:37:00,70.7,68.9,30.01,NNW,327,0.0,7.0,94,0.00,,,0.25,445.0,meteohub,2013-07-29 12:37:00,
2013-07-29 08:43:00,71.2,69.1,30.02,NNW,327,0.0,7.0,93,0.00,,,0.25,455.0,meteohub,2013-07-29 12:43:00,
2013-07-29 08:48:00,71.4,68.7,30.02,NW,320,0.0,2.0,91,0.00,,,0.25,454.0,meteohub,2013-07-29 12:48:00,
2013-07-29 08:53:00,71.8,69.1,30.02,West,281,0.0,4.0,91,0.00,,,0.25,457.0,meteohub,2013-07-29 12:53:00,
2013-07-29 08:59:00,72.1,69.1,30.02,WNW,299,4.0,4.0,90,0.00,,,0.25,496.0,meteohub,2013-07-29 12:59:00,
2013-07-29 09:04:00,72.5,69.1,30.02,WNW,302,0.0,4.0,89,0.00,,,0.25,534.0,meteohub,2013-07-29 13:04:00,
2013-07-29 09:09:00,72.9,68.7,30.02,NW,320,0.0,4.0,87,0.00,,,0.25,276.0,meteohub,2013-07-29 13:09:00,
2013-07-29 09:14:00,72.9,68.4,30.02,WNW,299,3.0,4.0,86,0.00,,,0.25,504.0,meteohub,2013-07-29 13:14:00,
2013-07-29 09:19:00,73.0,68.2,30.02,NW,309,4.0,5.0,85,0.00,,,0.25,394.0,meteohub,2013-07-29 13:19:00,
2013-07-29 09:26:00,73.2,68.4,30.02,NNW,336,0.0,5.0,85,0.00,,,0.25,290.0,meteohub,2013-07-29 13:26:00,
2013-07-29 09:32:00,73.8,68.5,30.03,West,279,0.0,5.0,84,0.00,,,0.25,571.0,meteohub,2013-07-29 13:32:00,
2013-07-29 09:37:00,74.1,68.5,30.03,West,275,4.0,5.0,83,0.00,,,0.25,568.0,meteohub,2013-07-29 13:37:00,
2013-07-29 09:42:00,74.7,68.7,30.03,NNW,333,0.0,6.0,82,0.00,,,0.25,591.0,meteohub,2013-07-29 13:42:00,
2013-07-29 09:47:00,74.8,68.9,30.03,West,271,0.0,6.0,82,0.00,,,0.25,573.0,meteohub,2013-07-29 13:47:00,
2013-07-29 09:52:00,75.2,68.5,30.03,NW,321,1.0,6.0,80,0.00,,,0.25,199.0,meteohub,2013-07-29 13:52:00,
2013-07-29 09:57:00,75.0,68.4,30.03,NNW,346,2.0,5.0,80,0.00,,,0.25,360.0,meteohub,2013-07-29 13:57:00,
2013-07-29 10:02:00,75.4,68.7,30.03,NNW,330,0.0,5.0,80,0.00,,,0.25,693.0,meteohub,2013-07-29 14:02:00,
2013-07-29 10:07:00,75.4,68.4,30.04,WNW,301,0.0,5.0,79,0.00,,,0.25,666.0,meteohub,2013-07-29 14:07:00,
2013-07-29 10:13:00,75.6,68.9,30.03,WNW,286,5.0,5.0,80,0.00,,,0.25,686.0,meteohub,2013-07-29 14:13:00,
2013-07-29 10:18:00,75.6,68.9,30.04,NNW,334,3.0,6.0,80,0.00,,,0.25,626.0,meteohub,2013-07-29 14:18:00,
2013-07-29 10:24:00,75.7,68.4,30.04,West,267,0.0,6.0,78,0.00,,,0.25,712.0,meteohub,2013-07-29 14:24:00,
2013-07-29 10:29:00,76.5,68.0,30.04,NW,314,0.0,6.0,75,0.00,,,0.25,733.0,meteohub,2013-07-29 14:29:00,
2013-07-29 10:35:00,77.9,68.9,30.04,North,5,1.0,5.0,74,0.00,,,0.25,749.0,meteohub,2013-07-29 14:35:00,
2013-07-29 10:40:00,78.6,69.3,30.04,NNW,344,1.0,3.0,73,0.00,,,0.25,731.0,meteohub,2013-07-29 14:40:00,
2013-07-29 10:46:00,77.4,68.4,30.04,West,265,1.0,5.0,74,0.00,,,0.25,230.0,meteohub,2013-07-29 14:46:00,
2013-07-29 10:51:00,77.4,68.9,30.04,West,279,2.0,6.0,75,0.00,,,0.25,772.0,meteohub,2013-07-29 14:51:00,
2013-07-29 10:56:00,77.9,68.5,30.04,West,274,0.0,6.0,73,0.00,,,0.25,772.0,meteohub,2013-07-29 14:56:00,
2013-07-29 11:02:00,79.3,69.1,30.04,WSW,255,0.0,6.0,71,0.00,,,0.25,784.0,meteohub,2013-07-29 15:02:00,
2013-07-29 11:07:00,79.2,68.9,30.04,West,261,0.0,6.0,71,0.00,,,0.25,803.0,meteohub,2013-07-29 15:07:00,
2013-07-29 11:13:00,79.3,69.1,30.04,NNW,338,2.0,6.0,71,0.00,,,0.25,803.0,meteohub,2013-07-29 15:13:00,
2013-07-29 11:18:00,78.6,68.4,30.03,NW,306,0.0,7.0,71,0.00,,,0.25,805.0,meteohub,2013-07-29 15:18:00,
2013-07-29 11:23:00,79.2,68.9,30.03,NNW,333,2.0,7.0,71,0.00,,,0.25,817.0,meteohub,2013-07-29 15:23:00,
2013-07-29 11:28:00,79.3,69.1,30.03,NNW,332,0.0,7.0,71,0.00,,,0.25,817.0,meteohub,2013-07-29 15:28:00,
2013-07-29 11:33:00,79.3,67.8,30.03,NNW,329,6.0,6.0,68,0.00,,,0.25,795.0,meteohub,2013-07-29 15:33:00,
2013-07-29 11:38:00,79.3,68.4,30.03,SW,221,4.0,6.0,69,0.00,,,0.25,837.0,meteohub,2013-07-29 15:38:00,
2013-07-29 11:44:00,79.5,67.6,30.03,West,265,0.0,6.0,67,0.00,,,0.25,879.0,meteohub,2013-07-29 15:44:00,
2013-07-29 11:49:00,80.4,68.0,30.03,West,275,0.0,6.0,66,0.00,,,0.25,933.0,meteohub,2013-07-29 15:49:00,
2013-07-29 11:54:00,80.8,68.0,30.03,SE,128,0.0,6.0,65,0.00,,,0.25,204.0,meteohub,2013-07-29 15:54:00,
2013-07-29 12:00:00,82.2,68.4,30.03,East,94,0.0,4.0,63,0.00,,,0.25,963.0,meteohub,2013-07-29 16:00:00,
2013-07-29 12:05:00,83.8,68.9,30.02,South,179,0.0,4.0,61,0.00,,,0.25,981.0,meteohub,2013-07-29 16:05:00,
2013-07-29 12:10:00,83.7,68.4,30.02,NNW,340,1.0,6.0,60,0.00,,,0.25,209.0,meteohub,2013-07-29 16:10:00,
2013-07-29 12:15:00,82.6,68.7,30.03,NNE,14,0.0,6.0,63,0.00,,,0.25,962.0,meteohub,2013-07-29 16:15:00,
2013-07-29 12:20:00,82.9,67.6,30.02,WNW,282,0.0,6.0,60,0.00,,,0.25,958.0,meteohub,2013-07-29 16:20:00,
2013-07-29 12:25:00,82.8,68.0,30.02,WSW,253,0.0,3.0,61,0.00,,,0.25,905.0,meteohub,2013-07-29 16:25:00,
2013-07-29 12:30:00,82.9,67.6,30.02,SSW,198,0.0,7.0,60,0.00,,,0.25,902.0,meteohub,2013-07-29 16:30:00,
2013-07-29 12:35:00,82.2,66.0,30.02,NW,319,0.0,7.0,58,0.00,,,0.25,937.0,meteohub,2013-07-29 16:35:00,
2013-07-29 12:40:00,82.0,66.7,30.02,NNW,331,0.0,7.0,60,0.00,,,0.25,939.0,meteohub,2013-07-29 16:40:00,
2013-07-29 12:47:00,82.8,68.0,30.02,NNW,334,3.0,5.0,61,0.00,,,0.25,991.0,meteohub,2013-07-29 16:47:00,
2013-07-29 12:52:00,82.0,67.6,30.02,North,355,0.0,8.0,62,0.00,,,0.25,357.0,meteohub,2013-07-29 16:52:00,
2013-07-29 12:57:00,82.8,68.4,30.02,WNW,293,0.0,8.0,62,0.00,,,0.25,972.0,meteohub,2013-07-29 16:57:00,
2013-07-29 13:02:00,84.4,68.5,30.02,WSW,254,0.0,8.0,59,0.00,,,0.25,935.0,meteohub,2013-07-29 17:02:00,
2013-07-29 13:07:00,85.5,70.9,30.02,ESE,105,0.0,4.0,62,0.00,,,0.25,951.0,meteohub,2013-07-29 17:07:00,
2013-07-29 13:13:00,86.5,71.4,30.01,ESE,116,9.0,9.0,61,0.00,,,0.25,984.0,meteohub,2013-07-29 17:13:00,
2013-07-29 13:18:00,86.7,71.2,30.02,SE,126,4.0,10.0,60,0.00,,,0.25,260.0,meteohub,2013-07-29 17:18:00,
2013-07-29 13:23:00,86.2,71.1,30.02,ESE,111,7.0,10.0,61,0.00,,,0.25,313.0,meteohub,2013-07-29 17:23:00,
2013-07-29 13:28:00,85.8,70.9,30.02,SE,124,0.0,10.0,61,0.00,,,0.25,274.0,meteohub,2013-07-29 17:28:00,
2013-07-29 13:34:00,85.3,70.3,30.02,South,173,0.0,9.0,61,0.00,,,0.25,255.0,meteohub,2013-07-29 17:34:00,
2013-07-29 13:39:00,84.6,69.6,30.01,SW,217,0.0,9.0,61,0.00,,,0.25,258.0,meteohub,2013-07-29 17:39:00,
2013-07-29 13:44:00,84.6,70.5,30.01,East,101,0.0,7.0,63,0.00,,,0.25,385.0,meteohub,2013-07-29 17:44:00,
2013-07-29 13:50:00,84.7,69.8,30.01,SE,131,1.0,5.0,61,0.00,,,0.25,243.0,meteohub,2013-07-29 17:50:00,
2013-07-29 13:55:00,85.5,70.5,30.01,SE,128,0.0,7.0,61,0.00,,,0.25,954.0,meteohub,2013-07-29 17:55:00,
2013-07-29 14:00:00,86.7,70.7,30.01,ESE,123,3.0,7.0,59,0.00,,,0.25,942.0,meteohub,2013-07-29 18:00:00,
2013-07-29 14:05:00,87.6,71.1,30.01,East,98,5.0,7.0,58,0.00,,,0.25,916.0,meteohub,2013-07-29 18:05:00,
2013-07-29 14:10:00,88.2,70.0,30.01,SSW,196,0.0,4.0,55,0.00,,,0.25,213.0,meteohub,2013-07-29 18:10:00,
2013-07-29 14:16:00,88.3,70.7,30.01,SSW,200,1.0,8.0,56,0.00,,,0.25,969.0,meteohub,2013-07-29 18:16:00,
2013-07-29 14:21:00,88.5,66.9,30.01,SE,140,0.0,6.0,49,0.00,,,0.25,322.0,meteohub,2013-07-29 18:21:00,
2013-07-29 14:26:00,87.6,70.5,30.01,SE,128,4.0,6.0,57,0.00,,,0.25,267.0,meteohub,2013-07-29 18:26:00,
2013-07-29 14:32:00,87.4,70.9,30.01,ESE,121,0.0,8.0,58,0.00,,,0.25,1028.0,meteohub,2013-07-29 18:32:00,
2013-07-29 14:37:00,87.4,70.9,30.01,SE,136,0.0,8.0,58,0.00,,,0.25,311.0,meteohub,2013-07-29 18:37:00,
2013-07-29 14:42:00,87.4,70.9,30.01,ESE,111,0.0,7.0,58,0.00,,,0.25,399.0,meteohub,2013-07-29 18:42:00,
2013-07-29 14:47:00,87.1,70.5,30.01,South,184,1.0,7.0,58,0.00,,,0.25,348.0,meteohub,2013-07-29 18:47:00,
2013-07-29 14:52:00,87.6,68.4,30.01,WNW,290,3.0,7.0,53,0.00,,,0.25,965.0,meteohub,2013-07-29 18:52:00,
2013-07-29 14:57:00,87.6,67.3,30.01,SSE,168,5.0,9.0,51,0.00,,,0.25,990.0,meteohub,2013-07-29 18:57:00,
2013-07-29 15:03:00,87.4,67.6,30.01,SSW,212,3.0,9.0,52,0.00,,,0.25,199.0,meteohub,2013-07-29 19:03:00,
2013-07-29 15:08:00,85.8,66.2,30.01,SW,234,3.0,9.0,52,0.00,,,0.25,199.0,meteohub,2013-07-29 19:08:00,
2013-07-29 15:14:00,85.5,66.9,30.01,North,351,5.0,8.0,54,0.00,,,0.25,218.0,meteohub,2013-07-29 19:14:00,
2013-07-29 15:19:00,84.9,65.8,30.01,NW,316,6.0,12.0,53,0.00,,,0.25,325.0,meteohub,2013-07-29 19:19:00,
2013-07-29 15:24:00,84.9,65.8,30.01,SW,233,6.0,12.0,53,0.00,,,0.25,923.0,meteohub,2013-07-29 19:24:00,
2013-07-29 15:29:00,86.5,65.7,30.01,SSW,197,3.0,12.0,50,0.00,,,0.25,471.0,meteohub,2013-07-29 19:29:00,
2013-07-29 15:35:00,86.9,66.0,30.01,WSW,246,3.0,11.0,50,0.00,,,0.25,900.0,meteohub,2013-07-29 19:35:00,
2013-07-29 15:40:00,86.5,66.2,30.01,NNW,334,6.0,11.0,51,0.00,,,0.25,802.0,meteohub,2013-07-29 19:40:00,
2013-07-29 15:45:00,85.6,65.5,30.01,WNW,284,6.0,11.0,51,0.00,,,0.25,227.0,meteohub,2013-07-29 19:45:00,
2013-07-29 15:50:00,85.5,65.8,30.00,NW,318,0.0,10.0,52,0.00,,,0.25,770.0,meteohub,2013-07-29 19:50:00,
2013-07-29 15:56:00,84.9,64.8,30.00,WNW,286,3.0,10.0,51,0.00,,,0.25,197.0,meteohub,2013-07-29 19:56:00,
2013-07-29 16:01:00,84.9,64.8,30.00,NNW,333,6.0,13.0,51,0.00,,,0.25,712.0,meteohub,2013-07-29 20:01:00,
2013-07-29 16:06:00,85.6,64.2,30.00,NW,319,8.0,13.0,49,0.00,,,0.25,670.0,meteohub,2013-07-29 20:06:00,
2013-07-29 16:12:00,85.5,64.0,30.00,SSW,210,9.0,13.0,49,0.00,,,0.25,652.0,meteohub,2013-07-29 20:12:00,
2013-07-29 16:17:00,85.6,64.2,30.00,WNW,292,5.0,12.0,49,0.00,,,0.25,670.0,meteohub,2013-07-29 20:17:00,
2013-07-29 16:23:00,85.6,65.5,30.00,SW,225,2.0,12.0,51,0.00,,,0.25,633.0,meteohub,2013-07-29 20:23:00,
2013-07-29 16:28:00,85.5,64.8,30.00,SW,230,0.0,11.0,50,0.00,,,0.25,610.0,meteohub,2013-07-29 20:28:00,
2013-07-29 16:33:00,85.6,65.5,30.01,SW,228,7.0,11.0,51,0.00,,,0.25,619.0,meteohub,2013-07-29 20:33:00,
2013-07-29 16:38:00,85.6,64.9,30.01,SW,232,2.0,11.0,50,0.00,,,0.25,570.0,meteohub,2013-07-29 20:38:00,
2013-07-29 16:44:00,85.5,64.8,30.01,SW,236,2.0,13.0,50,0.00,,,0.25,573.0,meteohub,2013-07-29 20:44:00,
2013-07-29 16:49:00,86.0,65.1,30.01,WNW,284,6.0,13.0,50,0.00,,,0.25,543.0,meteohub,2013-07-29 20:49:00,
2013-07-29 16:54:00,85.3,64.6,30.01,SSW,202,6.0,13.0,50,0.00,,,0.25,557.0,meteohub,2013-07-29 20:54:00,
2013-07-29 16:59:00,85.6,64.2,30.00,WNW,302,5.0,12.0,49,0.00,,,0.25,557.0,meteohub,2013-07-29 20:59:00,
2013-07-29 17:05:00,85.1,63.1,30.01,NW,310,5.0,12.0,48,0.00,,,0.25,160.0,meteohub,2013-07-29 21:05:00,
2013-07-29 17:10:00,84.6,63.3,30.01,WNW,296,7.0,11.0,49,0.00,,,0.25,541.0,meteohub,2013-07-29 21:10:00,
2013-07-29 17:15:00,84.6,63.3,30.01,WSW,247,3.0,9.0,49,0.00,,,0.25,497.0,meteohub,2013-07-29 21:15:00,
2013-07-29 17:20:00,84.9,63.7,30.00,NNW,346,0.0,9.0,49,0.00,,,0.25,485.0,meteohub,2013-07-29 21:20:00,
2013-07-29 17:25:00,84.7,64.6,30.00,WSW,252,6.0,11.0,51,0.00,,,0.25,329.0,meteohub,2013-07-29 21:25:00,
2013-07-29 17:31:00,84.6,64.9,30.00,WSW,252,6.0,11.0,52,0.00,,,0.25,403.0,meteohub,2013-07-29 21:31:00,
2013-07-29 17:36:00,84.2,64.0,30.00,NNW,333,5.0,11.0,51,0.00,,,0.25,88.0,meteohub,2013-07-29 21:36:00,
2013-07-29 17:41:00,83.7,64.8,30.00,WNW,284,3.0,11.0,53,0.00,,,0.25,135.0,meteohub,2013-07-29 21:41:00,
2013-07-29 17:46:00,82.9,64.0,30.01,WSW,241,0.0,10.0,53,0.00,,,0.25,127.0,meteohub,2013-07-29 21:46:00,
2013-07-29 17:52:00,83.3,64.4,30.01,NNW,338,2.0,9.0,53,0.00,,,0.25,350.0,meteohub,2013-07-29 21:52:00,
2013-07-29 17:57:00,83.8,64.4,30.01,WSW,255,4.0,8.0,52,0.00,,,0.25,329.0,meteohub,2013-07-29 21:57:00,
2013-07-29 18:02:00,83.8,62.1,30.01,NE,41,1.0,8.0,48,0.00,,,0.25,318.0,meteohub,2013-07-29 22:02:00,
2013-07-29 18:07:00,83.3,61.0,30.01,WSW,239,4.0,13.0,47,0.00,,,0.00,297.0,meteohub,2013-07-29 22:07:00,
2013-07-29 18:13:00,83.3,61.0,30.01,WNW,292,4.0,15.0,47,0.00,,,0.00,279.0,meteohub,2013-07-29 22:13:00,
2013-07-29 18:19:00,82.9,58.8,30.01,NW,311,3.0,15.0,44,0.00,,,0.00,258.0,meteohub,2013-07-29 22:19:00,
2013-07-29 18:24:00,82.8,58.6,30.01,WNW,301,0.0,13.0,44,0.00,,,0.00,243.0,meteohub,2013-07-29 22:24:00,
2013-07-29 18:29:00,82.9,58.1,30.01,WNW,292,9.0,14.0,43,0.00,,,0.00,236.0,meteohub,2013-07-29 22:29:00,
2013-07-29 18:35:00,82.8,57.4,30.01,NNW,337,4.0,14.0,42,0.00,,,0.00,225.0,meteohub,2013-07-29 22:35:00,
2013-07-29 18:41:00,83.1,58.3,30.02,WNW,293,4.0,10.0,43,0.00,,,0.00,209.0,meteohub,2013-07-29 22:41:00,
2013-07-29 18:47:00,83.7,58.1,30.02,NW,323,0.0,10.0,42,0.00,,,0.00,188.0,meteohub,2013-07-29 22:47:00,
2013-07-29 18:53:00,82.9,58.8,30.02,NW,325,0.0,7.0,44,0.00,,,0.00,167.0,meteohub,2013-07-29 22:53:00,
2013-07-29 18:58:00,82.0,57.4,30.03,North,355,3.0,9.0,43,0.00,,,0.00,148.0,meteohub,2013-07-29 22:58:00,
2013-07-29 19:03:00,82.0,57.4,30.03,NW,305,4.0,12.0,43,0.00,,,0.00,132.0,meteohub,2013-07-29 23:03:00,
2013-07-29 19:08:00,81.7,57.0,30.03,NNW,335,0.0,12.0,43,0.00,,,0.00,114.0,meteohub,2013-07-29 23:08:00,
2013-07-29 19:13:00,81.1,56.5,30.03,West,269,0.0,12.0,43,0.00,,,0.00,98.0,meteohub,2013-07-29 23:13:00,
2013-07-29 19:19:00,81.3,56.7,30.03,WNW,292,2.0,8.0,43,0.00,,,0.00,79.0,meteohub,2013-07-29 23:19:00,
2013-07-29 19:24:00,81.1,57.2,30.04,NW,315,8.0,8.0,44,0.00,,,0.00,65.0,meteohub,2013-07-29 23:24:00,
2013-07-29 19:30:00,80.6,56.7,30.04,West,268,3.0,7.0,44,0.00,,,0.00,53.0,meteohub,2013-07-29 23:30:00,
2013-07-29 19:35:00,80.2,56.3,30.04,NW,306,0.0,9.0,44,0.00,,,0.00,40.0,meteohub,2013-07-29 23:35:00,
2013-07-29 19:40:00,80.2,57.0,30.04,WSW,243,0.0,9.0,45,0.00,,,0.00,32.0,meteohub,2013-07-29 23:40:00,
2013-07-29 19:45:00,80.1,56.8,30.04,West,263,0.0,7.0,45,0.00,,,0.00,21.0,meteohub,2013-07-29 23:45:00,
2013-07-29 19:51:00,79.3,56.8,30.04,WNW,303,0.0,7.0,46,0.00,,,0.00,14.0,meteohub,2013-07-29 23:51:00,
2013-07-29 19:56:00,79.0,57.0,30.04,WSW,244,0.0,7.0,47,0.00,,,0.00,12.0,meteohub,2013-07-29 23:56:00,
2013-07-29 20:01:00,78.4,56.5,30.04,WNW,292,1.0,7.0,47,0.00,,,0.00,11.0,meteohub,2013-07-30 00:01:00,
2013-07-29 20:06:00,78.1,56.8,30.04,NW,304,0.0,7.0,48,0.00,,,0.00,7.0,meteohub,2013-07-30 00:06:00,
2013-07-29 20:11:00,77.9,56.7,30.05,West,263,0.0,7.0,48,0.00,,,0.00,5.0,meteohub,2013-07-30 00:11:00,
2013-07-29 20:17:00,77.4,56.7,30.05,West,274,1.0,5.0,49,0.00,,,0.00,0.0,meteohub,2013-07-30 00:17:00,
2013-07-29 20:22:00,77.2,56.5,30.05,WNW,294,2.0,5.0,49,0.00,,,0.00,0.0,meteohub,2013-07-30 00:22:00,
2013-07-29 20:27:00,76.6,56.7,30.05,WNW,292,0.0,5.0,50,0.00,,,0.00,0.0,meteohub,2013-07-30 00:27:00,
2013-07-29 20:32:00,76.5,57.0,30.05,West,277,2.0,5.0,51,0.00,,,0.00,0.0,meteohub,2013-07-30 00:32:00,
2013-07-29 20:37:00,76.1,56.7,30.06,NW,312,0.0,5.0,51,0.00,,,0.00,0.0,meteohub,2013-07-30 00:37:00,
2013-07-29 20:43:00,75.9,57.0,30.06,NNW,342,0.0,5.0,52,0.00,,,0.00,0.0,meteohub,2013-07-30 00:43:00,
2013-07-29 20:48:00,75.7,57.4,30.06,NNW,336,3.0,5.0,53,0.00,,,0.00,0.0,meteohub,2013-07-30 00:48:00,
2013-07-29 20:53:00,75.4,57.0,30.06,WNW,289,1.0,5.0,53,0.00,,,0.00,0.0,meteohub,2013-07-30 00:53:00,
2013-07-29 20:58:00,75.2,56.8,30.06,WNW,292,1.0,5.0,53,0.00,,,0.00,0.0,meteohub,2013-07-30 00:58:00,
2013-07-29 21:03:00,75.0,57.2,30.06,West,266,0.0,5.0,54,0.00,,,0.00,0.0,meteohub,2013-07-30 01:03:00,
2013-07-29 21:09:00,74.8,57.0,30.07,NW,309,0.0,6.0,54,0.00,,,0.00,0.0,meteohub,2013-07-30 01:09:00,
2013-07-29 21:14:00,74.7,57.4,30.07,West,271,0.0,6.0,55,0.00,,,0.00,0.0,meteohub,2013-07-30 01:14:00,
2013-07-29 21:19:00,74.5,57.2,30.07,West,271,0.0,6.0,55,0.00,,,0.00,0.0,meteohub,2013-07-30 01:19:00,
2013-07-29 21:24:00,74.3,57.0,30.08,West,270,0.0,3.0,55,0.00,,,0.00,0.0,meteohub,2013-07-30 01:24:00,
2013-07-29 21:30:00,73.9,57.2,30.08,West,277,2.0,4.0,56,0.00,,,0.00,0.0,meteohub,2013-07-30 01:30:00,
2013-07-29 21:35:00,73.8,57.0,30.08,West,259,2.0,4.0,56,0.00,,,0.00,0.0,meteohub,2013-07-30 01:35:00,
2013-07-29 21:40:00,73.6,57.4,30.08,West,272,0.0,5.0,57,0.00,,,0.00,0.0,meteohub,2013-07-30 01:40:00,
2013-07-29 21:45:00,73.4,57.2,30.08,WNW,284,1.0,5.0,57,0.00,,,0.00,0.0,meteohub,2013-07-30 01:45:00,
2013-07-29 21:51:00,73.2,57.0,30.08,WNW,284,0.0,5.0,57,0.00,,,0.00,0.0,meteohub,2013-07-30 01:51:00,
2013-07-29 21:56:00,73.2,57.0,30.08,WNW,284,0.0,4.0,57,0.00,,,0.00,0.0,meteohub,2013-07-30 01:56:00,
2013-07-29 22:01:00,73.0,57.4,30.08,WSW,247,3.0,4.0,58,0.00,,,0.00,0.0,meteohub,2013-07-30 02:01:00,
2013-07-29 22:06:00,73.0,57.4,30.08,NW,315,2.0,4.0,58,0.00,,,0.00,0.0,meteohub,2013-07-30 02:06:00,
2013-07-29 22:12:00,72.9,57.2,30.08,West,267,1.0,5.0,58,0.00,,,0.00,0.0,meteohub,2013-07-30 02:12:00,
2013-07-29 22:17:00,72.7,57.0,30.09,West,267,2.0,5.0,58,0.00,,,0.00,0.0,meteohub,2013-07-30 02:17:00,
2013-07-29 22:22:00,72.7,57.6,30.09,West,273,0.0,5.0,59,0.00,,,0.00,0.0,meteohub,2013-07-30 02:22:00,
2013-07-29 22:27:00,72.3,57.2,30.09,West,268,3.0,4.0,59,0.00,,,0.00,0.0,meteohub,2013-07-30 02:27:00,
2013-07-29 22:33:00,72.1,57.6,30.09,WNW,284,3.0,4.0,60,0.00,,,0.00,0.0,meteohub,2013-07-30 02:33:00,
2013-07-29 22:39:00,72.0,57.4,30.09,WNW,303,1.0,6.0,60,0.00,,,0.00,0.0,meteohub,2013-07-30 02:39:00,
2013-07-29 22:45:00,72.0,57.4,30.09,WNW,302,3.0,6.0,60,0.00,,,0.00,0.0,meteohub,2013-07-30 02:45:00,
2013-07-29 22:50:00,71.8,57.6,30.09,West,265,5.0,6.0,61,0.00,,,0.00,0.0,meteohub,2013-07-30 02:50:00,
2013-07-29 22:55:00,71.4,57.2,30.09,West,273,3.0,5.0,61,0.00,,,0.00,0.0,meteohub,2013-07-30 02:55:00,
2013-07-29 23:00:00,71.2,57.6,30.09,NW,314,2.0,7.0,62,0.00,,,0.00,0.0,meteohub,2013-07-30 03:00:00,
2013-07-29 23:06:00,71.1,57.4,30.09,NNW,329,2.0,7.0,62,0.00,,,0.00,0.0,meteohub,2013-07-30 03:06:00,
2013-07-29 23:12:00,70.9,57.7,30.09,West,276,2.0,6.0,63,0.00,,,0.00,0.0,meteohub,2013-07-30 03:12:00,
2013-07-29 23:18:00,70.7,57.6,30.09,West,267,0.0,6.0,63,0.00,,,0.00,0.0,meteohub,2013-07-30 03:18:00,
2013-07-29 23:24:00,70.5,57.7,30.09,WNW,299,2.0,6.0,64,0.00,,,0.00,0.0,meteohub,2013-07-30 03:24:00,
2013-07-29 23:30:00,70.3,57.6,30.09,WSW,256,1.0,5.0,64,0.00,,,0.00,0.0,meteohub,2013-07-30 03:30:00,
2013-07-29 23:35:00,70.2,57.4,30.09,West,271,0.0,6.0,64,0.00,,,0.00,0.0,meteohub,2013-07-30 03:35:00,
2013-07-29 23:40:00,70.2,57.4,30.10,WNW,298,1.0,6.0,64,0.00,,,0.00,0.0,meteohub,2013-07-30 03:40:00,
2013-07-29 23:46:00,70.0,57.7,30.10,West,263,1.0,6.0,65,0.00,,,0.00,0.0,meteohub,2013-07-30 03:46:00,
2013-07-29 23:51:00,69.8,57.6,30.10,West,266,1.0,3.0,65,0.00,,,0.00,0.0,meteohub,2013-07-30 03:51:00,
2013-07-29 23:57:00,69.6,57.7,30.10,West,281,0.0,6.0,66,0.00,,,0.00,0.0,meteohub,2013-07-30 03:57:00,